createdAt,value
2024-02-04T00:00:06.682Z,17.15
2024-02-04T00:02:39.583Z,17.73
2024-02-04T00:05:06.429Z,16.17
2024-02-04T00:07:33.174Z,14.60
2024-02-04T00:09:59.880Z,15.13
2024-02-04T00:12:26.626Z,15.65
2024-02-04T00:14:53.198Z,16.42
2024-02-04T00:17:19.901Z,15.93
2024-02-04T00:19:46.538Z,16.80
2024-02-04T00:22:13.114Z,16.17
2024-02-04T00:24:39.855Z,17.20
2024-02-04T00:27:07.472Z,17.27
2024-02-04T00:29:34.082Z,15.60
2024-02-04T00:32:00.667Z,16.08
2024-02-04T00:34:27.448Z,15.98
2024-02-04T00:36:54.070Z,14.10
2024-02-04T00:39:20.694Z,12.82
2024-02-04T00:41:47.313Z,12.52
2024-02-04T00:44:13.935Z,11.48
2024-02-04T00:46:40.480Z,12.05
2024-02-04T00:49:07.234Z,10.50
2024-02-04T00:51:34.104Z,11.70
2024-02-04T00:54:00.774Z,10.90
2024-02-04T00:56:27.414Z,14.60
2024-02-04T00:58:54.213Z,13.90
2024-02-04T01:01:20.959Z,14.57
2024-02-04T01:03:48.144Z,19.23
2024-02-04T01:06:15.170Z,24.83
2024-02-04T01:08:41.725Z,23.38
2024-02-04T01:11:08.533Z,30.00
2024-02-04T01:13:35.488Z,25.95
2024-02-04T01:16:02.484Z,23.35
2024-02-04T01:18:29.306Z,32.38
2024-02-04T01:20:55.993Z,28.42
2024-02-04T01:23:22.634Z,32.92
2024-02-04T01:25:49.288Z,35.33
2024-02-04T01:28:15.891Z,31.00
2024-02-04T01:30:42.481Z,39.47
2024-02-04T01:33:09.301Z,35.80
2024-02-04T01:35:36.016Z,29.90
2024-02-04T01:38:02.673Z,34.33
2024-02-04T01:40:29.367Z,32.38
2024-02-04T01:42:56.978Z,34.88
2024-02-04T01:45:23.670Z,31.45
2024-02-04T01:47:50.640Z,40.20
2024-02-04T01:50:18.185Z,31.63
2024-02-04T01:52:45.444Z,38.05
2024-02-04T01:55:12.643Z,36.50
2024-02-04T01:57:39.488Z,37.72
2024-02-04T02:00:10.198Z,39.33
2024-02-04T02:02:41.122Z,40.08
2024-02-04T02:05:09.621Z,32.72
2024-02-04T02:07:36.365Z,39.05
2024-02-04T02:10:03.161Z,37.22
2024-02-04T02:12:37.628Z,39.92
2024-02-04T02:15:15.250Z,33.28
2024-02-04T02:18:11.093Z,36.75
2024-02-04T02:20:51.866Z,41.33
2024-02-04T02:23:32.066Z,39.22
2024-02-04T02:25:59.349Z,42.10
2024-02-04T02:28:25.925Z,36.88
2024-02-04T02:30:52.491Z,37.25
2024-02-04T02:33:20.141Z,37.20
2024-02-04T02:35:50.987Z,39.90
2024-02-04T02:38:51.867Z,38.42
2024-02-04T02:41:21.840Z,42.72
2024-02-04T02:43:50.335Z,46.50
2024-02-04T02:46:17.347Z,41.45
2024-02-04T02:48:44.101Z,40.70
2024-02-04T02:51:10.959Z,44.60
2024-02-04T02:53:37.562Z,34.85
2024-02-04T02:56:04.444Z,33.97
2024-02-04T02:58:32.274Z,37.53
2024-02-04T03:00:59.057Z,33.95
2024-02-04T03:03:25.841Z,30.50
2024-02-04T03:05:52.592Z,28.85
2024-02-04T03:08:19.835Z,33.75
2024-02-04T03:10:46.467Z,44.63
2024-02-04T03:13:13.119Z,32.72
2024-02-04T03:15:42.174Z,35.03
2024-02-04T03:18:08.858Z,34.50
2024-02-04T03:20:35.466Z,30.20
2024-02-04T03:23:02.130Z,30.80
2024-02-04T03:25:30.223Z,37.15
2024-02-04T03:27:57.648Z,41.50
2024-02-04T03:30:24.455Z,32.97
2024-02-04T03:32:51.157Z,30.63
2024-02-04T03:35:17.953Z,34.13
2024-02-04T03:37:44.632Z,30.85
2024-02-04T03:40:12.268Z,32.65
2024-02-04T03:42:39.257Z,39.25
2024-02-04T03:45:06.459Z,37.50
2024-02-04T03:47:33.088Z,37.20
2024-02-04T03:49:59.708Z,33.60
2024-02-04T03:52:26.293Z,40.53
2024-02-04T03:54:53.048Z,38.03
2024-02-04T03:57:19.722Z,46.58
2024-02-04T03:59:49.656Z,40.25
2024-02-04T04:02:16.394Z,39.33
2024-02-04T04:04:44.167Z,35.92
2024-02-04T04:07:11.055Z,25.90
2024-02-04T04:09:37.668Z,28.50
2024-02-04T04:12:04.510Z,40.10
2024-02-04T04:14:31.096Z,37.47
2024-02-04T04:16:57.650Z,37.28
2024-02-04T04:19:25.652Z,33.47
2024-02-04T04:21:52.397Z,28.73
2024-02-04T04:24:23.101Z,30.85
2024-02-04T04:26:49.715Z,32.13
2024-02-04T04:29:16.280Z,32.63
2024-02-04T04:31:42.942Z,32.15
2024-02-04T04:34:09.706Z,33.83
2024-02-04T04:36:36.441Z,34.20
2024-02-04T04:39:03.198Z,30.67
2024-02-04T04:41:29.880Z,26.40
2024-02-04T04:43:56.459Z,23.52
2024-02-04T04:46:23.082Z,27.80
2024-02-04T04:48:49.868Z,23.75
2024-02-04T04:51:16.484Z,30.70
2024-02-04T04:53:43.272Z,25.60
2024-02-04T04:56:09.843Z,28.35
2024-02-04T04:58:36.704Z,24.42
2024-02-04T05:01:03.352Z,25.67
2024-02-04T05:03:30.132Z,31.45
2024-02-04T05:05:56.827Z,25.92
2024-02-04T05:08:23.386Z,26.23
2024-02-04T05:10:49.904Z,20.77
2024-02-04T05:13:16.588Z,24.35
2024-02-04T05:15:43.304Z,26.00
2024-02-04T05:18:10.011Z,21.52
2024-02-04T05:20:36.693Z,25.75
2024-02-04T05:23:03.347Z,22.83
2024-02-04T05:25:30.004Z,25.20
2024-02-04T05:27:56.633Z,25.17
2024-02-04T05:30:23.497Z,21.92
2024-02-04T05:32:50.154Z,24.38
2024-02-04T05:35:16.795Z,19.60
2024-02-04T05:37:43.447Z,21.67
2024-02-04T05:40:10.603Z,19.20
2024-02-04T05:42:37.935Z,19.73
2024-02-04T05:45:06.835Z,21.15
2024-02-04T05:47:33.685Z,22.52
2024-02-04T05:50:00.555Z,22.48
2024-02-04T05:52:27.454Z,23.02
2024-02-04T05:54:54.147Z,24.08
2024-02-04T05:57:21.705Z,26.25
2024-02-04T05:59:49.443Z,22.30
2024-02-04T06:02:16.009Z,23.65
2024-02-04T06:04:42.719Z,19.48
2024-02-04T06:07:09.465Z,23.83
2024-02-04T06:09:36.970Z,25.98
2024-02-04T06:12:07.446Z,27.92
2024-02-04T06:14:35.916Z,26.83
2024-02-04T06:17:02.529Z,30.20
2024-02-04T06:19:29.258Z,25.58
2024-02-04T06:21:55.923Z,19.50
2024-02-04T06:24:22.630Z,24.48
2024-02-04T06:26:49.180Z,18.55
2024-02-04T06:29:15.810Z,17.25
2024-02-04T06:31:46.713Z,18.17
2024-02-04T06:34:13.535Z,19.58
2024-02-04T06:36:45.241Z,22.65
2024-02-04T06:39:12.146Z,16.67
2024-02-04T06:41:38.705Z,15.25
2024-02-04T06:44:05.804Z,22.00
2024-02-04T06:46:32.420Z,18.58
2024-02-04T06:48:59.147Z,18.75
2024-02-04T06:51:25.864Z,14.55
2024-02-04T06:53:52.432Z,17.98
2024-02-04T06:56:19.037Z,15.27
2024-02-04T06:58:45.702Z,15.35
2024-02-04T07:01:12.912Z,15.75
2024-02-04T07:03:40.009Z,16.83
2024-02-04T07:06:07.061Z,19.13
2024-02-04T07:08:33.831Z,17.77
2024-02-04T07:11:00.880Z,16.30
2024-02-04T07:13:27.627Z,19.83
2024-02-04T07:15:55.576Z,13.73
2024-02-04T07:18:23.184Z,16.70
2024-02-04T07:20:50.173Z,15.05
2024-02-04T07:23:16.840Z,12.88
2024-02-04T07:25:43.941Z,15.82
2024-02-04T07:28:10.672Z,18.75
2024-02-04T07:30:37.364Z,12.07
2024-02-04T07:33:04.187Z,11.90
2024-02-04T07:35:30.880Z,10.95
2024-02-04T07:37:57.466Z,11.20
2024-02-04T07:40:24.049Z,12.52
2024-02-04T07:42:50.795Z,13.15
2024-02-04T07:45:17.497Z,10.27
2024-02-04T07:47:44.063Z,11.52
2024-02-04T07:50:10.902Z,10.77
2024-02-04T07:52:37.598Z,12.02
2024-02-04T07:55:04.501Z,10.23
2024-02-04T07:57:31.389Z,11.75
2024-02-04T07:59:58.871Z,13.20
2024-02-04T08:02:25.933Z,11.05
2024-02-04T08:04:52.552Z,8.30
2024-02-04T08:07:21.726Z,8.20
2024-02-04T08:09:48.384Z,4.55
2024-02-04T08:12:14.927Z,6.65
2024-02-04T08:14:41.461Z,6.35
2024-02-04T08:17:08.176Z,4.90
2024-02-04T08:19:34.861Z,5.05
2024-02-04T08:22:01.884Z,7.38
2024-02-04T08:24:30.707Z,6.68
2024-02-04T08:26:57.289Z,4.82
2024-02-04T08:29:23.882Z,8.40
2024-02-04T08:31:50.446Z,8.05
2024-02-04T08:34:17.579Z,13.23
2024-02-04T08:36:44.156Z,12.40
2024-02-04T08:39:10.725Z,13.13
2024-02-04T08:41:37.308Z,13.88
2024-02-04T08:44:04.628Z,12.68
2024-02-04T08:46:31.368Z,12.13
2024-02-04T08:48:58.073Z,18.35
2024-02-04T08:51:25.681Z,13.93
2024-02-04T08:53:53.166Z,12.73
2024-02-04T08:56:19.759Z,11.40
2024-02-04T08:58:47.071Z,12.23
2024-02-04T09:01:13.660Z,13.65
2024-02-04T09:03:40.358Z,12.48
2024-02-04T09:06:07.030Z,12.15
2024-02-04T09:08:33.576Z,9.93
2024-02-04T09:11:00.199Z,10.55
2024-02-04T09:13:26.919Z,9.80
2024-02-04T09:15:55.162Z,10.77
2024-02-04T09:18:22.084Z,7.97
2024-02-04T09:20:49.248Z,8.82
2024-02-04T09:23:15.941Z,7.45
2024-02-04T09:25:42.623Z,9.50
2024-02-04T09:28:09.278Z,13.68
2024-02-04T09:30:36.042Z,8.98
2024-02-04T09:33:03.163Z,10.05
2024-02-04T09:35:30.145Z,9.30
2024-02-04T09:37:57.034Z,9.27
2024-02-04T09:40:24.023Z,8.43
2024-02-04T09:42:50.935Z,5.68
2024-02-04T09:45:18.438Z,7.15
2024-02-04T09:47:47.182Z,6.07
2024-02-04T09:50:16.054Z,10.95
2024-02-04T09:52:50.941Z,6.65
2024-02-04T09:55:20.878Z,6.88
2024-02-04T09:57:47.586Z,5.15
2024-02-04T10:00:14.620Z,6.80
2024-02-04T10:02:42.919Z,7.13
2024-02-04T10:05:11.910Z,8.93
2024-02-04T10:07:38.942Z,9.18
2024-02-04T10:10:07.624Z,5.63
2024-02-04T10:12:36.586Z,7.47
2024-02-04T10:15:06.508Z,5.90
2024-02-04T10:17:33.452Z,7.65
2024-02-04T10:20:01.598Z,5.82
2024-02-04T10:22:29.375Z,7.88
2024-02-04T10:25:06.821Z,3.78
2024-02-04T10:27:37.234Z,13.57
2024-02-04T10:30:05.467Z,6.75
2024-02-04T10:32:32.486Z,6.35
2024-02-04T10:35:00.782Z,5.78
2024-02-04T10:37:30.579Z,3.65
2024-02-04T10:39:58.088Z,4.88
2024-02-04T10:42:29.132Z,3.03
2024-02-04T10:44:56.300Z,5.43
2024-02-04T10:47:34.146Z,6.35
2024-02-04T10:50:05.234Z,3.88
2024-02-04T10:52:40.426Z,3.53
2024-02-04T10:55:10.405Z,3.10
2024-02-04T10:57:38.414Z,5.00
2024-02-04T11:00:09.419Z,1.90
2024-02-04T11:02:40.039Z,3.45
2024-02-04T11:05:07.590Z,3.35
2024-02-04T11:07:35.293Z,3.85
2024-02-04T11:10:02.706Z,1.65
2024-02-04T11:12:31.342Z,2.72
2024-02-04T11:15:02.315Z,1.58
2024-02-04T11:18:02.933Z,3.70
2024-02-04T11:20:52.021Z,2.40
2024-02-04T11:23:24.930Z,5.03
2024-02-04T11:25:58.864Z,3.60
2024-02-04T11:28:27.154Z,3.85
2024-02-04T11:30:54.089Z,4.20
2024-02-04T11:33:22.727Z,5.15
2024-02-04T11:36:05.275Z,4.90
2024-02-04T11:38:36.269Z,4.95
2024-02-04T11:41:06.945Z,5.28
2024-02-04T11:43:37.858Z,6.00
2024-02-04T11:46:05.743Z,6.22
2024-02-04T11:48:35.340Z,5.30
2024-02-04T11:51:02.703Z,5.57
2024-02-04T11:53:33.350Z,6.72
2024-02-04T11:56:01.784Z,5.38
2024-02-04T11:58:29.391Z,5.53
2024-02-04T12:00:58.967Z,5.95
2024-02-04T12:03:33.086Z,7.32
2024-02-04T12:06:00.282Z,7.13
2024-02-04T12:08:33.365Z,5.28
2024-02-04T12:11:01.395Z,7.60
2024-02-04T12:13:29.717Z,6.60
2024-02-04T12:15:56.699Z,5.10
2024-02-04T12:18:23.466Z,7.25
2024-02-04T12:20:53.099Z,9.13
2024-02-04T12:23:20.270Z,7.38
2024-02-04T12:25:47.357Z,5.57
2024-02-04T12:28:15.307Z,7.55
2024-02-04T12:30:42.221Z,6.18
2024-02-04T12:33:10.300Z,6.75
2024-02-04T12:35:37.192Z,6.53
2024-02-04T12:38:04.566Z,5.82
2024-02-04T12:40:32.644Z,6.88
2024-02-04T12:43:05.672Z,7.65
2024-02-04T12:45:34.021Z,8.00
2024-02-04T12:48:00.916Z,5.68
2024-02-04T12:50:28.002Z,8.70
2024-02-04T12:53:07.952Z,9.00
2024-02-04T12:55:36.372Z,7.88
2024-02-04T12:58:07.738Z,7.45
2024-02-04T13:00:38.385Z,6.93
2024-02-04T13:03:06.564Z,4.25
2024-02-04T13:05:33.974Z,7.28
2024-02-04T13:08:06.307Z,4.95
2024-02-04T13:10:35.277Z,9.00
2024-02-04T13:13:07.813Z,8.13
2024-02-04T13:18:17.968Z,5.40
2024-02-04T13:20:46.323Z,5.00
2024-02-04T13:23:12.975Z,7.57
2024-02-04T13:25:39.740Z,7.20
2024-02-04T13:28:06.909Z,8.60
2024-02-04T13:30:33.722Z,12.07
2024-02-04T13:33:03.020Z,7.40
2024-02-04T13:35:29.759Z,9.43
2024-02-04T13:37:56.920Z,6.22
2024-02-04T13:40:25.491Z,7.82
2024-02-04T13:42:52.325Z,10.02
2024-02-04T13:45:19.145Z,6.82
2024-02-04T13:47:46.226Z,7.30
2024-02-04T13:50:13.275Z,7.68
2024-02-04T13:52:40.635Z,7.60
2024-02-04T13:55:08.952Z,8.30
2024-02-04T13:57:36.859Z,6.85
2024-02-04T14:00:09.007Z,9.80
2024-02-04T14:02:35.984Z,9.98
2024-02-04T14:05:02.918Z,7.45
2024-02-04T14:07:29.762Z,7.55
2024-02-04T14:09:56.946Z,7.35
2024-02-04T14:12:23.655Z,9.73
2024-02-04T14:14:50.231Z,9.02
2024-02-04T14:17:17.018Z,8.80
2024-02-04T14:19:46.501Z,6.65
2024-02-04T14:22:13.310Z,12.10
2024-02-04T14:24:40.035Z,5.97
2024-02-04T14:27:06.713Z,10.60
2024-02-04T14:29:33.278Z,6.80
2024-02-04T14:31:59.885Z,10.23
2024-02-04T14:34:28.230Z,10.07
2024-02-04T14:36:55.128Z,9.13
2024-02-04T14:39:21.786Z,10.68
2024-02-04T14:41:48.680Z,8.45
2024-02-04T14:44:15.243Z,6.07
2024-02-04T14:46:43.018Z,10.02
2024-02-04T14:49:10.537Z,4.88
2024-02-04T14:51:40.266Z,6.82
2024-02-04T14:54:10.167Z,5.80
2024-02-04T14:56:43.784Z,4.93
2024-02-04T14:59:20.890Z,5.60
2024-02-04T15:01:51.414Z,6.30
2024-02-04T15:04:18.832Z,8.07
2024-02-04T15:06:46.238Z,7.55
2024-02-04T15:09:13.008Z,10.48
2024-02-04T15:11:39.836Z,10.25
2024-02-04T15:14:07.324Z,8.57
2024-02-04T15:16:35.780Z,5.07
2024-02-04T15:19:02.637Z,3.92
2024-02-04T15:21:29.634Z,7.65
2024-02-04T15:23:56.616Z,6.07
2024-02-04T15:26:25.545Z,5.88
2024-02-04T15:28:53.024Z,7.38
2024-02-04T15:31:19.945Z,9.65
2024-02-04T15:33:48.394Z,10.75
2024-02-04T15:36:15.071Z,9.82
2024-02-04T15:38:41.720Z,10.35
2024-02-04T15:41:08.713Z,9.35
2024-02-04T15:43:35.426Z,6.80
2024-02-04T15:46:10.374Z,4.97
2024-02-04T15:48:41.636Z,5.00
2024-02-04T15:51:08.877Z,4.63
2024-02-04T15:53:35.682Z,3.38
2024-02-04T15:56:07.868Z,4.57
2024-02-04T15:58:38.752Z,5.85
2024-02-04T16:01:16.497Z,2.97
2024-02-04T16:03:43.762Z,6.55
2024-02-04T16:06:11.224Z,7.60
2024-02-04T16:08:39.686Z,5.43
2024-02-04T16:11:17.516Z,6.63
2024-02-04T16:13:46.900Z,6.05
2024-02-04T16:16:19.795Z,3.50
2024-02-04T16:18:46.952Z,5.53
2024-02-04T16:21:13.625Z,7.55
2024-02-04T16:23:40.385Z,12.00
2024-02-04T16:26:07.143Z,8.40
2024-02-04T16:28:34.126Z,9.27
2024-02-04T16:31:00.791Z,11.70
2024-02-04T16:33:27.672Z,10.57
2024-02-04T16:35:54.300Z,9.05
2024-02-04T16:38:20.930Z,7.80
2024-02-04T16:40:47.740Z,7.75
2024-02-04T16:43:15.248Z,9.25
2024-02-04T16:45:42.092Z,5.45
2024-02-04T16:48:09.000Z,11.38
2024-02-04T16:50:35.701Z,8.65
2024-02-04T16:53:03.493Z,12.07
2024-02-04T16:55:30.162Z,9.18
2024-02-04T16:57:57.288Z,8.98
2024-02-04T17:00:25.823Z,7.78
2024-02-04T17:02:53.768Z,14.75
2024-02-04T17:05:21.271Z,12.52
2024-02-04T17:07:48.610Z,16.00
2024-02-04T17:10:15.941Z,14.70
2024-02-04T17:12:42.927Z,27.92
2024-02-04T17:15:10.317Z,48.40
2024-02-04T17:17:37.341Z,12.88
2024-02-04T17:20:18.387Z,75.35
2024-02-04T17:22:45.483Z,40.17
2024-02-04T17:25:18.518Z,14.70
2024-02-04T17:27:46.684Z,12.70
2024-02-04T17:30:16.316Z,13.43
2024-02-04T17:32:44.477Z,10.23
2024-02-04T17:35:11.914Z,11.88
2024-02-04T17:37:42.145Z,14.07
2024-02-04T17:40:10.554Z,11.75
2024-02-04T17:42:37.821Z,15.07
2024-02-04T17:45:07.486Z,20.67
2024-02-04T17:47:34.852Z,16.48
2024-02-04T17:50:02.942Z,12.02
2024-02-04T17:52:29.983Z,12.52
2024-02-04T17:54:57.000Z,14.77
2024-02-04T17:57:23.652Z,13.23
2024-02-04T17:59:52.339Z,14.45
2024-02-04T18:02:27.842Z,14.38
2024-02-04T18:05:02.004Z,14.60
2024-02-04T18:07:28.846Z,21.33
2024-02-04T18:09:55.721Z,12.15
2024-02-04T18:12:22.730Z,17.45
2024-02-04T18:14:51.118Z,20.50
2024-02-04T18:17:18.254Z,19.45
2024-02-04T18:19:45.167Z,16.38
2024-02-04T18:22:11.836Z,13.93
2024-02-04T18:24:40.190Z,15.07
2024-02-04T18:27:06.957Z,17.88
2024-02-04T18:29:33.769Z,18.33
2024-02-04T18:32:00.495Z,15.07
2024-02-04T18:34:27.296Z,19.42
2024-02-04T18:36:56.976Z,16.00
2024-02-04T18:39:23.958Z,17.38
2024-02-04T18:41:50.693Z,17.10
2024-02-04T18:44:17.751Z,18.92
2024-02-04T18:46:44.351Z,13.90
2024-02-04T18:49:11.701Z,16.20
2024-02-04T18:51:44.052Z,15.15
2024-02-04T18:54:11.017Z,16.58
2024-02-04T18:56:43.130Z,12.80
2024-02-04T18:59:09.678Z,15.02
2024-02-04T19:01:37.139Z,13.85
2024-02-04T19:04:04.865Z,16.10
2024-02-04T19:06:32.084Z,14.25
2024-02-04T19:09:00.429Z,17.13
2024-02-04T19:11:27.349Z,16.00
2024-02-04T19:13:53.963Z,19.67
2024-02-04T19:16:22.189Z,11.50
2024-02-04T19:18:49.416Z,16.13
2024-02-04T19:21:17.498Z,14.25
2024-02-04T19:23:44.382Z,14.95
2024-02-04T19:26:12.950Z,13.55
2024-02-04T19:28:40.336Z,17.58
2024-02-04T19:31:07.051Z,13.48
2024-02-04T19:33:33.737Z,11.68
2024-02-04T19:36:00.343Z,16.23
2024-02-04T19:38:27.478Z,12.48
2024-02-04T19:40:54.552Z,21.83
2024-02-04T19:43:21.392Z,17.05
2024-02-04T19:45:48.183Z,12.48
2024-02-04T19:48:14.784Z,15.43
2024-02-04T19:50:41.424Z,12.48
2024-02-04T19:53:08.052Z,20.17
2024-02-04T19:55:35.644Z,17.42
2024-02-04T19:58:03.636Z,15.25
2024-02-04T20:00:30.912Z,13.65
2024-02-04T20:02:57.587Z,14.15
2024-02-04T20:05:25.009Z,11.98
2024-02-04T20:07:51.991Z,8.70
2024-02-04T20:10:19.080Z,14.00
2024-02-04T20:12:49.320Z,12.15
2024-02-04T20:15:16.177Z,14.05
2024-02-04T20:17:42.766Z,12.65
2024-02-04T20:20:09.943Z,14.52
2024-02-04T20:22:36.596Z,13.20
2024-02-04T20:25:04.689Z,11.45
2024-02-04T20:27:31.507Z,13.98
2024-02-04T20:29:58.178Z,11.45
2024-02-04T20:32:24.881Z,15.75
2024-02-04T20:34:51.654Z,13.23
2024-02-04T20:37:18.513Z,16.08
2024-02-04T20:39:46.498Z,13.20
2024-02-04T20:42:14.905Z,11.90
2024-02-04T20:44:43.861Z,16.75
2024-02-04T20:47:10.629Z,13.63
2024-02-04T20:49:37.608Z,13.23
2024-02-04T20:52:04.906Z,15.50
2024-02-04T20:54:31.612Z,14.68
2024-02-04T20:56:58.652Z,13.90
2024-02-04T20:59:25.282Z,15.93
2024-02-04T21:01:51.986Z,12.13
2024-02-04T21:04:18.809Z,21.15
2024-02-04T21:06:45.549Z,16.45
2024-02-04T21:09:12.297Z,13.25
2024-02-04T21:11:38.884Z,17.52
2024-02-04T21:14:05.468Z,14.85
2024-02-04T21:16:32.179Z,17.15
2024-02-04T21:18:59.188Z,14.52
2024-02-04T21:21:25.860Z,15.60
2024-02-04T21:23:52.416Z,14.05
2024-02-04T21:26:19.076Z,18.95
2024-02-04T21:28:45.635Z,16.83
2024-02-04T21:31:13.099Z,17.85
2024-02-04T21:33:39.927Z,17.77
2024-02-04T21:36:11.448Z,21.15
2024-02-04T21:38:41.166Z,22.98
2024-02-04T21:41:07.917Z,13.75
2024-02-04T21:43:34.694Z,13.05
2024-02-04T21:46:01.769Z,17.52
2024-02-04T21:48:28.625Z,23.02
2024-02-04T21:50:55.349Z,15.30
2024-02-04T21:53:21.932Z,14.20
2024-02-04T21:55:48.585Z,16.27
2024-02-04T21:58:15.267Z,23.58
2024-02-04T22:00:42.507Z,17.67
2024-02-04T22:03:12.181Z,18.95
2024-02-04T22:05:39.521Z,13.00
2024-02-04T22:08:07.061Z,14.90
2024-02-04T22:10:34.623Z,15.25
2024-02-04T22:13:01.483Z,18.20
2024-02-04T22:15:28.095Z,18.23
2024-02-04T22:17:56.671Z,15.82
2024-02-04T22:20:24.404Z,18.98
2024-02-04T22:22:51.026Z,14.02
2024-02-04T22:25:17.731Z,13.90
2024-02-04T22:27:44.576Z,14.13
2024-02-04T22:30:11.897Z,13.40
2024-02-04T22:32:38.477Z,16.90
2024-02-04T22:35:05.902Z,22.00
2024-02-04T22:37:32.567Z,10.82
2024-02-04T22:39:59.322Z,11.30
2024-02-04T22:42:26.021Z,13.13
2024-02-04T22:44:53.248Z,15.27
2024-02-04T22:47:19.863Z,19.40
2024-02-04T22:49:46.532Z,17.75
2024-02-04T22:52:13.833Z,12.98
2024-02-04T22:54:40.571Z,18.05
2024-02-04T22:57:08.142Z,10.88
2024-02-04T22:59:34.677Z,16.75
2024-02-04T23:02:01.578Z,14.52
2024-02-04T23:04:28.482Z,16.13
2024-02-04T23:06:55.251Z,15.30
2024-02-04T23:09:21.872Z,12.07
2024-02-04T23:11:49.149Z,13.10
2024-02-04T23:14:15.694Z,16.88
2024-02-04T23:16:42.313Z,25.88
2024-02-04T23:19:09.002Z,11.90
2024-02-04T23:21:36.040Z,15.13
2024-02-04T23:24:02.665Z,10.40
2024-02-04T23:26:29.893Z,22.73
2024-02-04T23:28:56.512Z,18.55
2024-02-04T23:31:23.214Z,15.68
2024-02-04T23:33:49.909Z,16.73
2024-02-04T23:36:16.644Z,10.45
2024-02-04T23:38:43.229Z,20.10
2024-02-04T23:41:10.116Z,13.43
2024-02-04T23:43:37.736Z,14.55
2024-02-04T23:46:04.588Z,17.27
2024-02-04T23:48:31.475Z,22.25
2024-02-04T23:50:58.226Z,15.40
2024-02-04T23:53:24.952Z,17.63
2024-02-04T23:55:51.518Z,18.75
2024-02-04T23:58:18.230Z,19.55
